Terminal Aerodrome Forecast
Issued by NWS

Home | Current Version | Previous Version | Text Only | Print | Product List | Glossary On
Versions: 1 2 3 4 5 6 7 8 9 10 11 12 13 14 15 16 17 18 19 20 21 22 23 24 25 26 27 28 29 30
340
FTUS41 KBOX 080538
TAFBED
TAF
KBED 080538Z 0806/0906 04007KT P6SM BKN025
     FM080800 04011G19KT P6SM OVC020
     FM081030 02013G28KT 2SM -SN OVC010
     FM081300 02014G30KT 1/2SM SN OVC010
     FM081700 01014G31KT 1SM -SN OVC010
     FM081900 01014G31KT 1SM -SN OVC015
     FM090000 35010G19KT 1SM -SN OVC008
     FM090400 36006KT 1SM -SHSN OVC008=

USA.gov is the U.S. government's official web portal to all federal, state and local government web resources and services.